createdAt,value
2019-01-26T01:01:27.720Z,3.90
2019-01-26T01:06:35.274Z,3.90
2019-01-26T01:11:40.682Z,3.90
2019-01-26T01:16:45.320Z,4.00
2019-01-26T01:21:50.340Z,4.00
2019-01-26T01:26:55.401Z,4.10
2019-01-26T01:32:00.048Z,4.10
2019-01-26T01:37:04.835Z,4.10
2019-01-26T01:42:09.893Z,4.10
2019-01-26T01:47:15.771Z,4.20
2019-01-26T01:52:22.170Z,4.20
2019-01-26T01:57:27.633Z,4.20
2019-01-26T02:02:32.364Z,4.20
2019-01-26T02:07:37.353Z,4.30
2019-01-26T02:12:43.380Z,4.30
2019-01-26T02:17:49.749Z,4.30
2019-01-26T02:22:56.632Z,4.40
2019-01-26T02:28:06.952Z,4.40
2019-01-26T02:33:07.792Z,4.40
2019-01-26T02:38:12.446Z,4.40
2019-01-26T02:43:18.400Z,4.50
2019-01-26T02:48:25.030Z,4.50
2019-01-26T02:53:29.772Z,4.50
2019-01-26T02:58:34.667Z,4.60
2019-01-26T03:03:39.328Z,4.60
2019-01-26T03:08:47.142Z,4.60
2019-01-26T03:25:25.865Z,5.00
2019-01-26T03:30:30.813Z,5.00
2019-01-26T03:35:35.614Z,5.00
2019-01-26T03:40:40.325Z,5.00
2019-01-26T03:45:45.113Z,5.00
2019-01-26T03:50:49.793Z,4.90
2019-01-26T03:55:54.741Z,5.00
2019-01-26T04:01:00.877Z,5.00
2019-01-26T04:06:05.973Z,5.00
2019-01-26T04:11:10.756Z,5.00
2019-01-26T04:16:17.154Z,5.00
2019-01-26T04:21:21.940Z,5.00
2019-01-26T04:26:26.681Z,5.10
2019-01-26T04:31:31.388Z,5.10
2019-01-26T04:36:37.624Z,5.10
2019-01-26T04:41:42.556Z,5.10
2019-01-26T04:46:48.479Z,5.20
2019-01-26T04:51:53.476Z,5.20
2019-01-26T04:56:58.381Z,5.20
2019-01-26T05:02:05.425Z,5.30
2019-01-26T05:07:10.108Z,5.30
2019-01-26T05:12:14.846Z,5.30
2019-01-26T05:17:20.774Z,5.30
2019-01-26T05:22:25.511Z,5.30
2019-01-26T05:27:31.680Z,5.30
2019-01-26T05:32:38.101Z,5.40
2019-01-26T05:37:43.091Z,5.40
2019-01-26T05:42:47.820Z,5.30
2019-01-26T05:47:52.909Z,5.40
2019-01-26T05:52:58.881Z,5.40
2019-01-26T05:58:03.718Z,5.40
2019-01-26T06:03:11.064Z,5.40
2019-01-26T06:08:16.993Z,5.40
2019-01-26T06:13:24.065Z,5.40
2019-01-26T06:18:30.254Z,5.50
2019-01-26T06:23:37.988Z,5.50
2019-01-26T06:28:53.983Z,5.50
2019-01-26T06:33:49.657Z,5.50
2019-01-26T06:38:55.633Z,5.60
2019-01-26T06:44:00.393Z,5.60
2019-01-26T06:49:05.432Z,5.60
2019-01-26T06:54:10.534Z,5.70
2019-01-26T06:59:18.768Z,5.70
2019-01-26T07:04:32.653Z,5.80
2019-01-26T07:09:37.377Z,5.80
2019-01-26T07:14:43.576Z,5.80
2019-01-26T07:19:57.199Z,5.80
2019-01-26T07:25:02.429Z,5.90
2019-01-26T07:30:09.917Z,5.90
2019-01-26T07:35:14.806Z,5.90
2019-01-26T07:40:20.706Z,5.90
2019-01-26T07:45:25.809Z,6.00
2019-01-26T07:50:30.905Z,6.00
2019-01-26T07:55:36.817Z,6.00
2019-01-26T08:00:41.608Z,6.00
2019-01-26T08:05:46.377Z,6.10
2019-01-26T08:10:53.668Z,6.10
2019-01-26T08:21:46.584Z,6.20
2019-01-26T08:26:52.299Z,6.40
2019-01-26T08:31:58.784Z,6.40
2019-01-26T08:37:05.022Z,6.40
2019-01-26T08:42:11.232Z,6.40
2019-01-26T08:47:16.053Z,6.40
2019-01-26T08:52:20.829Z,6.50
2019-01-26T08:57:25.800Z,6.50
2019-01-26T09:03:09.597Z,6.50
2019-01-26T09:08:14.364Z,6.60
2019-01-26T09:13:19.303Z,6.60
2019-01-26T09:18:24.176Z,6.60
2019-01-26T09:23:32.216Z,6.70
2019-01-26T09:28:37.019Z,6.70
2019-01-26T09:33:41.824Z,6.70
2019-01-26T09:38:46.754Z,6.80
2019-01-26T09:43:52.444Z,6.70
2019-01-26T09:49:09.687Z,6.80
2019-01-26T09:54:17.395Z,6.90
2019-01-26T09:59:22.840Z,6.90
2019-01-26T10:04:27.912Z,6.90
2019-01-26T10:09:33.856Z,7.00
2019-01-26T10:14:38.836Z,7.00
2019-01-26T10:19:46.670Z,7.10
2019-01-26T10:24:52.199Z,7.20
2019-01-26T10:29:58.360Z,7.30
2019-01-26T10:35:03.218Z,7.30
2019-01-26T10:40:23.391Z,7.40
2019-01-26T10:45:31.440Z,7.40
2019-01-26T10:50:36.403Z,7.40
2019-01-26T10:55:41.431Z,7.50
2019-01-26T11:00:46.123Z,7.50
2019-01-26T11:05:50.975Z,7.60
2019-01-26T11:10:57.405Z,7.70
2019-01-26T11:16:03.496Z,7.70
2019-01-26T11:21:08.345Z,7.70
2019-01-26T11:26:13.119Z,7.70
2019-01-26T11:31:17.880Z,7.70
2019-01-26T11:36:25.836Z,7.70
2019-01-26T11:41:32.692Z,7.70
2019-01-26T11:46:44.414Z,7.80
2019-01-26T11:52:12.063Z,7.80
2019-01-26T11:57:18.937Z,7.80
2019-01-26T12:02:30.015Z,7.90
2019-01-26T12:07:35.904Z,7.90
2019-01-26T12:12:43.896Z,7.90
2019-01-26T12:17:49.860Z,8.00
2019-01-26T12:22:54.984Z,8.10
2019-01-26T12:27:59.691Z,8.10
2019-01-26T12:33:04.717Z,8.20
2019-01-26T12:38:10.459Z,8.20
2019-01-26T12:43:15.678Z,8.30
2019-01-26T12:48:20.394Z,8.40
2019-01-26T12:53:27.751Z,8.40
2019-01-26T12:58:33.579Z,8.40
2019-01-26T13:03:38.348Z,8.50
2019-01-26T13:08:43.473Z,8.50
2019-01-26T13:13:48.461Z,8.50
2019-01-26T13:18:57.351Z,8.50
2019-01-26T13:24:03.577Z,8.50
2019-01-26T13:29:10.443Z,8.50
2019-01-26T13:34:15.316Z,8.50
2019-01-26T13:39:20.454Z,8.40
2019-01-26T13:44:27.090Z,8.40
2019-01-26T13:49:31.723Z,8.40
2019-01-26T13:54:36.808Z,8.40
2019-01-26T13:59:42.108Z,8.40
2019-01-26T14:04:50.815Z,8.40
2019-01-26T14:09:57.474Z,8.50
2019-01-26T14:15:02.529Z,8.40
2019-01-26T14:20:11.104Z,8.40
2019-01-26T14:25:17.615Z,8.40
2019-01-26T14:30:27.839Z,8.40
2019-01-26T14:35:32.866Z,8.40
2019-01-26T14:40:38.887Z,8.40
2019-01-26T14:45:43.993Z,8.40
2019-01-26T14:50:52.449Z,8.40
2019-01-26T14:55:57.196Z,8.40
2019-01-26T15:01:14.363Z,8.50
2019-01-26T15:06:19.065Z,8.50
2019-01-26T15:11:24.932Z,8.50
2019-01-26T15:16:30.664Z,8.40
2019-01-26T15:21:37.769Z,8.40
2019-01-26T15:26:43.412Z,8.40
2019-01-26T15:31:48.176Z,8.40
2019-01-26T15:36:52.915Z,8.40
2019-01-26T15:41:57.660Z,8.40
2019-01-26T15:47:07.974Z,8.40
2019-01-26T15:52:18.310Z,8.40
2019-01-26T15:57:24.680Z,8.40
2019-01-26T16:02:29.468Z,8.40
2019-01-26T16:07:36.821Z,8.30
2019-01-26T16:12:41.513Z,8.40
2019-01-26T16:17:46.372Z,8.30
2019-01-26T16:22:55.066Z,8.30
2019-01-26T16:28:00.600Z,8.30
2019-01-26T16:33:07.324Z,8.30
2019-01-26T16:38:12.402Z,8.30
2019-01-26T16:43:17.304Z,8.30
2019-01-26T16:48:22.313Z,8.30
2019-01-26T16:53:27.252Z,8.30
2019-01-26T16:58:32.534Z,8.30
2019-01-26T17:03:40.033Z,8.30
2019-01-26T17:08:45.352Z,8.30
2019-01-26T17:13:50.242Z,8.30
2019-01-26T17:18:55.200Z,8.30
2019-01-26T17:24:01.233Z,8.20
2019-01-26T17:40:39.870Z,8.20
2019-01-26T17:45:45.225Z,8.50
2019-01-26T17:50:54.025Z,8.40
2019-01-26T17:56:05.252Z,8.30
2019-01-26T18:01:12.977Z,8.20
2019-01-26T18:06:18.141Z,8.20
2019-01-26T18:11:24.039Z,8.10
2019-01-26T18:16:28.918Z,8.00
2019-01-26T18:21:33.671Z,7.90
2019-01-26T18:26:38.601Z,7.90
2019-01-26T18:31:44.431Z,7.80
2019-01-26T18:36:49.437Z,7.70
2019-01-26T18:41:54.689Z,7.70
2019-01-26T18:47:00.899Z,7.70
2019-01-26T18:52:07.379Z,7.60
2019-01-26T18:57:12.169Z,7.60
2019-01-26T19:02:17.745Z,7.60
2019-01-26T19:07:22.765Z,7.50
2019-01-26T19:12:27.740Z,7.50
2019-01-26T19:17:32.746Z,7.50
2019-01-26T19:22:37.648Z,7.50
2019-01-26T19:27:44.381Z,7.50
2019-01-26T19:32:49.230Z,7.50
2019-01-26T19:37:55.427Z,7.40
2019-01-26T19:43:00.569Z,7.40
2019-01-26T19:48:05.800Z,7.40
2019-01-26T19:53:10.928Z,7.40
2019-01-26T19:58:18.727Z,7.40
2019-01-26T20:03:24.897Z,7.40
2019-01-26T20:08:29.689Z,7.40
2019-01-26T20:13:34.621Z,7.40
2019-01-26T20:18:40.585Z,7.40
2019-01-26T20:23:47.543Z,7.30
2019-01-26T20:28:54.369Z,7.30
2019-01-26T20:33:59.294Z,7.40
2019-01-26T20:39:10.666Z,7.30
2019-01-26T20:44:19.692Z,7.40
2019-01-26T20:49:24.845Z,7.40
2019-01-26T20:54:29.904Z,7.40
2019-01-26T20:59:36.546Z,7.40
2019-01-26T21:04:42.113Z,7.40
2019-01-26T21:09:47.396Z,7.40
2019-01-26T21:14:54.245Z,7.50
2019-01-26T21:20:01.576Z,7.50
2019-01-26T21:25:08.815Z,7.40
2019-01-26T21:30:26.260Z,7.40
2019-01-26T21:35:31.770Z,7.40
2019-01-26T21:40:40.305Z,7.40
2019-01-26T21:45:46.027Z,7.40
2019-01-26T21:50:50.868Z,7.40
2019-01-26T21:55:57.321Z,7.40
2019-01-26T22:01:02.071Z,7.40
2019-01-26T22:06:07.255Z,7.40
2019-01-26T22:11:12.276Z,7.40
2019-01-26T22:16:17.807Z,7.40
2019-01-26T22:21:22.741Z,7.40
2019-01-26T22:26:27.896Z,7.40
2019-01-26T22:31:33.628Z,7.40
2019-01-26T22:36:38.475Z,7.40
2019-01-26T22:41:45.157Z,7.40
2019-01-26T22:46:51.520Z,7.30
2019-01-26T22:51:57.308Z,7.30
2019-01-26T22:57:02.267Z,7.30
2019-01-26T23:02:08.092Z,7.30
2019-01-26T23:07:36.145Z,7.30
2019-01-26T23:12:55.523Z,7.30
2019-01-26T23:18:45.279Z,7.20
2019-01-26T23:24:15.707Z,7.20
2019-01-26T23:29:49.169Z,7.30
2019-01-26T23:34:54.173Z,7.30
2019-01-26T23:40:00.555Z,7.30
